Speed, Indiana
Current Conditions -  °F | °C
As of 5:03 AM on Tuesday 27 Jan 2015 (Local Time) from KLOU Reporting Station
Overcast Overcast  
Wind Chill: 29°   Ceiling: 3100
Heat Index: 29°   Visibility: 8mi
Dew Point: 26°   Wind: 3mph
Humidity: 89%   Direction: 350°N
Pressure: 29.93"   Gusts: NA
Location:  38.3931°N, 85.7713°W
Report Text: KLOU 271003Z AUTO 35003KT 8SM FEW009 OVC031 M02/M03 A2993 RMK AO2 T10171033
Loading
Personal Weather Stations






























Interactive Weather Map New forecast layout! Learn more

10-Day Weather Forecast

Advertisements
Track Severe Weather on mobile